createdAt,value
2018-11-11T05:46:01.122Z,0.1
2018-11-11T05:48:01.124Z,0.2
2018-11-11T05:49:01.124Z,0.3
2018-11-11T05:51:01.407Z,0.4
2018-11-11T05:53:02.126Z,0.5
2018-11-11T05:54:01.146Z,0.7
2018-11-11T05:55:02.135Z,0.8
2018-11-11T05:56:01.110Z,1.0
2018-11-11T05:57:01.315Z,1.2
2018-11-11T05:58:01.105Z,1.5
2018-11-11T05:59:01.139Z,1.7
2018-11-11T06:00:01.106Z,2.1
2018-11-11T06:01:01.125Z,2.5
2018-11-11T06:02:01.326Z,2.9
2018-11-11T06:03:01.110Z,3.4
2018-11-11T06:04:01.149Z,4.1
2018-11-11T06:05:01.112Z,4.9
2018-11-11T06:06:01.108Z,5.8
2018-11-11T06:07:01.320Z,6.9
2018-11-11T06:08:01.114Z,8.2
2018-11-11T06:09:01.154Z,9.5
2018-11-11T06:10:01.105Z,11.0
2018-11-11T06:11:01.113Z,12.9
2018-11-11T06:12:02.277Z,15.1
2018-11-11T06:13:01.111Z,17.5
2018-11-11T06:14:01.203Z,20.4
2018-11-11T06:15:01.205Z,23.8
2018-11-11T06:16:01.113Z,28.0
2018-11-11T06:17:01.327Z,32.9
2018-11-11T06:18:01.119Z,38.6
2018-11-11T06:19:01.149Z,45.3
2018-11-11T06:20:01.107Z,53.1
2018-11-11T06:21:01.115Z,61.8
2018-11-11T06:22:01.328Z,71.2
2018-11-11T06:23:01.110Z,80.9
2018-11-11T06:24:01.152Z,91.1
2018-11-11T06:25:02.153Z,104.6
2018-11-11T06:26:01.110Z,121.7
2018-11-11T06:27:01.334Z,141.5
2018-11-11T06:28:01.114Z,163.7
2018-11-11T06:29:01.151Z,188.6
2018-11-11T06:30:01.119Z,215.7
2018-11-11T06:31:01.118Z,245.0
2018-11-11T06:32:01.361Z,276.7
2018-11-11T06:33:01.240Z,309.7
2018-11-11T06:34:01.194Z,343.7
2018-11-11T06:35:01.132Z,378.4
2018-11-11T06:36:06.120Z,413.8
2018-11-11T06:37:01.434Z,450.3
2018-11-11T06:38:01.120Z,488.4
2018-11-11T06:39:01.112Z,526.7
2018-11-11T06:40:06.133Z,563.2
2018-11-11T06:41:01.160Z,602.1
2018-11-11T06:42:01.327Z,647.1
2018-11-11T06:43:01.119Z,698.5
2018-11-11T06:44:01.114Z,755.7
2018-11-11T06:45:01.251Z,811.9
2018-11-11T06:46:01.152Z,856.5
2018-11-11T06:47:01.321Z,888.7
2018-11-11T06:48:01.144Z,918.2
2018-11-11T06:49:01.123Z,947.3
2018-11-11T06:50:01.394Z,979.4
2018-11-11T06:51:06.119Z,1027.1
2018-11-11T06:52:01.334Z,1101.7
2018-11-11T06:53:01.121Z,1198.3
2018-11-11T06:54:01.120Z,1313.5
2018-11-11T06:55:01.116Z,1447.8
2018-11-11T06:56:01.134Z,1596.5
2018-11-11T06:58:01.398Z,1755.2
2018-11-11T06:59:01.110Z,1920.9
2018-11-11T07:00:01.112Z,2098.5
2018-11-11T07:01:01.159Z,2296.9
2018-11-11T07:02:01.368Z,2527.9
2018-11-11T07:03:01.322Z,2788.5
2018-11-11T07:04:01.109Z,3067.8
2018-11-11T07:05:01.114Z,3369.3
2018-11-11T07:06:01.145Z,3693.7
2018-11-11T07:07:01.120Z,4018.1
2018-11-11T07:08:01.324Z,4324.8
2018-11-11T07:09:01.120Z,4629.7
2018-11-11T07:10:01.118Z,4941.3
2018-11-11T07:11:01.169Z,5268.2
2018-11-11T07:12:01.124Z,5607.4
2018-11-11T07:13:01.336Z,5959.6
2018-11-11T07:14:01.191Z,6329.1
2018-11-11T07:15:01.125Z,6714.5
2018-11-11T07:17:01.139Z,7179.6
2018-11-11T07:18:01.324Z,7647.1
2018-11-11T07:19:01.103Z,8098.5
2018-11-11T07:20:01.102Z,8549.5
2018-11-11T07:21:01.143Z,9030.3
2018-11-11T07:22:01.109Z,9587.3
2018-11-11T07:23:01.314Z,10252.5
2018-11-11T07:24:01.147Z,10956.4
2018-11-11T07:25:01.240Z,11607.0
2018-11-11T07:26:06.112Z,12190.1
2018-11-11T07:27:01.106Z,12763.6
2018-11-11T07:28:01.356Z,13401.6
2018-11-11T07:29:01.160Z,14089.1
2018-11-11T07:30:01.109Z,14737.8
2018-11-11T07:31:01.140Z,15301.5
2018-11-11T07:32:01.181Z,15738.6
2018-11-11T07:33:01.344Z,16159.3
2018-11-11T07:34:01.112Z,16602.4
2018-11-11T07:35:01.105Z,17041.3
2018-11-11T07:36:01.274Z,17427.1
2018-11-11T07:37:01.110Z,17727.4
2018-11-11T07:38:01.327Z,17966.3
2018-11-11T07:39:01.112Z,18239.3
2018-11-11T07:40:01.111Z,18684.2
2018-11-11T07:41:01.145Z,19396.1
2018-11-11T07:42:01.116Z,20305.3
2018-11-11T07:43:01.315Z,21246.4
2018-11-11T07:44:01.110Z,22130.3
2018-11-11T07:45:01.111Z,23021.4
2018-11-11T07:46:01.146Z,24038.6
2018-11-11T07:47:01.110Z,25197.3
2018-11-11T07:48:01.453Z,26391.9
2018-11-11T07:49:01.111Z,27482.9
2018-11-11T07:50:01.109Z,28412.4
2018-11-11T07:51:06.113Z,29246.4
2018-11-11T07:52:01.223Z,30035.8
2018-11-11T07:53:01.318Z,30724.7
2018-11-11T07:54:02.088Z,31285.4
2018-11-11T07:55:01.139Z,31656.3
2018-11-11T07:56:01.142Z,31740.0
2018-11-11T07:57:01.123Z,31541.2
2018-11-11T07:58:01.326Z,31142.7
2018-11-11T07:59:06.112Z,30657.0
2018-11-11T08:00:01.119Z,30082.5
2018-11-11T08:01:01.113Z,29379.3
2018-11-11T08:02:01.159Z,28556.5
2018-11-11T08:03:01.331Z,27720.4
2018-11-11T08:04:01.193Z,27009.3
2018-11-11T08:05:01.122Z,26492.4
2018-11-11T08:06:01.119Z,26111.2
2018-11-11T08:07:01.121Z,25781.0
2018-11-11T08:08:01.337Z,25477.3
2018-11-11T08:09:06.119Z,25169.8
2018-11-11T08:11:01.156Z,24854.9
2018-11-11T08:12:01.112Z,24630.0
2018-11-11T08:13:01.322Z,24504.3
2018-11-11T08:14:06.111Z,24496.7
2018-11-11T08:15:01.112Z,24616.7
2018-11-11T08:16:01.137Z,24874.2
2018-11-11T08:17:01.108Z,25163.9
2018-11-11T08:18:01.311Z,25386.4
2018-11-11T08:19:01.210Z,25505.8
2018-11-11T08:20:01.110Z,25559.4
2018-11-11T08:21:01.105Z,25635.3
2018-11-11T08:22:01.107Z,25828.7
2018-11-11T08:23:01.319Z,26220.9
2018-11-11T08:24:06.122Z,26879.1
2018-11-11T08:25:01.110Z,27800.6
2018-11-11T08:26:01.086Z,28939.3
2018-11-11T08:27:01.223Z,30192.8
2018-11-11T08:28:01.345Z,31490.0
2018-11-11T08:29:01.144Z,32829.8
2018-11-11T08:30:01.108Z,34204.7
2018-11-11T08:31:01.115Z,35598.7
2018-11-11T08:32:01.140Z,37067.1
2018-11-11T08:33:01.334Z,38644.9
2018-11-11T08:34:01.150Z,40377.7
2018-11-11T08:35:01.131Z,42191.3
2018-11-11T08:36:01.113Z,43969.1
2018-11-11T08:37:01.114Z,45753.7
2018-11-11T08:38:01.332Z,47588.2
2018-11-11T08:39:01.152Z,49592.5
2018-11-11T08:40:01.122Z,51381.4
2018-11-11T08:41:01.116Z,53009.7
2018-11-11T08:42:01.118Z,54494.3
2018-11-11T08:43:01.330Z,55895.3
2018-11-11T08:44:01.283Z,57205.5
2018-11-11T08:45:01.120Z,58415.9
2018-11-11T08:46:01.125Z,59556.4
2018-11-11T08:47:01.117Z,60641.5
2018-11-11T08:48:01.395Z,61686.6
2018-11-11T08:49:01.166Z,62647.3
2018-11-11T08:50:02.180Z,63544.9
2018-11-11T08:51:01.119Z,64409.5
2018-11-11T08:52:01.121Z,65109.0
2018-11-11T08:53:01.336Z,65535.0
2018-11-11T09:00:01.374Z,65535.0
2018-11-11T09:06:01.325Z,65097.5
2018-11-11T09:07:01.107Z,64449.2
2018-11-11T09:08:01.108Z,63824.0
2018-11-11T09:09:01.110Z,63323.5
2018-11-11T09:10:01.104Z,62930.0
2018-11-11T09:11:01.312Z,62782.7
2018-11-11T09:15:06.108Z,62782.7
2018-11-11T09:17:01.109Z,62693.5
2018-11-11T09:18:01.117Z,62268.2
2018-11-11T09:19:01.117Z,61528.7
2018-11-11T09:20:06.126Z,60541.8
2018-11-11T09:21:01.323Z,59790.7
2018-11-11T09:22:01.109Z,59193.1
2018-11-11T09:23:01.112Z,58517.8
2018-11-11T09:24:01.134Z,57539.7
2018-11-11T09:25:01.148Z,56273.0
2018-11-11T09:26:01.329Z,54704.9
2018-11-11T09:27:01.114Z,53069.1
2018-11-11T09:28:01.114Z,51410.3
2018-11-11T09:29:01.134Z,49716.7
2018-11-11T09:30:06.120Z,48092.1
2018-11-11T09:31:01.356Z,46644.5
2018-11-11T09:32:01.110Z,45634.4
2018-11-11T09:33:01.123Z,45455.3
2018-11-11T09:34:01.112Z,45820.9
2018-11-11T09:35:01.173Z,46579.2
2018-11-11T09:36:01.327Z,47721.9
2018-11-11T09:37:01.113Z,48967.9
2018-11-11T09:38:01.118Z,50268.4
2018-11-11T09:39:01.228Z,51747.1
2018-11-11T09:40:01.156Z,53407.2
2018-11-11T09:41:01.452Z,55122.6
2018-11-11T09:42:01.127Z,56758.4
2018-11-11T09:43:01.114Z,58417.2
2018-11-11T09:44:01.111Z,60110.9
2018-11-11T09:45:06.117Z,61735.4
2018-11-11T09:46:01.323Z,63183.1
2018-11-11T09:47:01.115Z,64242.3
2018-11-11T09:48:01.214Z,64448.5
2018-11-11T09:49:01.116Z,64094.3
2018-11-11T09:50:01.159Z,63347.2
2018-11-11T09:51:01.495Z,62300.6
2018-11-11T09:52:01.116Z,61196.0
2018-11-11T09:53:01.130Z,60096.7
2018-11-11T09:54:01.194Z,58962.4
2018-11-11T09:55:06.126Z,57827.4
2018-11-11T09:56:01.534Z,56640.1
2018-11-11T09:57:01.127Z,55421.1
2018-11-11T09:58:01.121Z,54209.1
2018-11-11T09:59:01.114Z,53135.9
2018-11-11T10:00:06.127Z,52432.1
2018-11-11T10:01:01.462Z,52196.1
2018-11-11T10:02:01.120Z,52236.2
2018-11-11T10:03:01.132Z,52634.3
2018-11-11T10:04:01.121Z,53362.4
2018-11-11T10:05:01.119Z,54338.1
2018-11-11T10:06:01.338Z,55430.5
2018-11-11T10:07:01.168Z,56535.1
2018-11-11T10:08:01.117Z,57634.5
2018-11-11T10:09:01.122Z,58768.7
2018-11-11T10:10:01.124Z,59903.7
2018-11-11T10:11:01.352Z,61091.1
2018-11-11T10:12:01.150Z,62310.0
2018-11-11T10:13:01.128Z,63522.1
2018-11-11T10:15:01.109Z,64595.3
2018-11-11T10:16:01.315Z,65299.1
2018-11-11T10:17:01.107Z,65535.0
2018-11-11T10:24:01.110Z,65380.7
2018-11-11T10:25:01.108Z,64995.7
2018-11-11T10:26:01.320Z,64650.9
2018-11-11T10:27:01.113Z,64318.9
2018-11-11T10:28:01.108Z,63961.3
2018-11-11T10:29:01.273Z,63394.5
2018-11-11T10:30:01.113Z,62850.6
2018-11-11T10:31:01.367Z,62743.3
2018-11-11T10:39:01.121Z,62897.6
2018-11-11T10:40:01.115Z,63282.7
2018-11-11T10:41:01.474Z,63627.4
2018-11-11T10:42:01.114Z,63959.5
2018-11-11T10:43:01.117Z,64317.1
2018-11-11T10:44:01.122Z,64883.9
2018-11-11T10:45:06.119Z,65427.7
2018-11-11T10:46:02.208Z,65535.0
2018-11-11T10:56:01.332Z,65434.1
2018-11-11T10:57:01.124Z,65070.3
2018-11-11T10:58:01.127Z,64642.3
2018-11-11T10:59:01.120Z,64356.5
2018-11-11T11:00:01.227Z,64260.1
2018-11-11T11:11:01.441Z,64360.9
2018-11-11T11:13:01.111Z,64724.8
2018-11-11T11:14:01.195Z,65152.8
2018-11-11T11:15:01.108Z,65438.5
2018-11-11T11:16:01.108Z,65535.0
2018-11-11T11:20:01.373Z,65472.9
2018-11-11T11:21:01.108Z,65229.1
2018-11-11T11:22:06.113Z,64839.9
2018-11-11T11:23:01.218Z,64331.0
2018-11-11T11:24:01.113Z,63734.5
2018-11-11T11:25:01.395Z,63078.4
2018-11-11T11:26:01.109Z,62467.1
2018-11-11T11:27:01.190Z,61880.2
2018-11-11T11:28:01.120Z,61243.3
2018-11-11T11:29:01.109Z,60482.1
2018-11-11T11:30:01.490Z,59580.1
2018-11-11T11:31:01.110Z,58588.9
2018-11-11T11:32:06.217Z,57719.2
2018-11-11T11:33:01.109Z,56538.0
2018-11-11T11:34:01.112Z,54988.1
2018-11-11T11:35:01.356Z,53479.6
2018-11-11T11:36:01.109Z,52155.6
2018-11-11T11:37:06.115Z,50655.1
2018-11-11T11:38:01.121Z,49038.1
2018-11-11T11:39:01.118Z,47504.1
2018-11-11T11:40:01.324Z,46104.8
2018-11-11T11:41:01.115Z,44786.6
2018-11-11T11:42:01.119Z,43673.9
2018-11-11T11:43:06.134Z,43070.1
2018-11-11T11:44:01.191Z,42974.5
2018-11-11T11:45:01.338Z,43167.3
2018-11-11T11:46:01.116Z,43360.9
2018-11-11T11:47:01.118Z,42977.8
2018-11-11T11:48:01.144Z,42336.6
2018-11-11T11:49:01.116Z,41876.6
2018-11-11T11:50:01.506Z,41144.3
2018-11-11T11:51:01.112Z,40427.7
2018-11-11T11:52:01.143Z,40355.4
2018-11-11T11:53:06.117Z,40766.5
2018-11-11T11:54:01.120Z,41245.2
2018-11-11T11:55:01.332Z,41174.3
2018-11-11T11:56:01.110Z,40749.6
2018-11-11T11:57:01.155Z,40068.1
2018-11-11T11:58:01.197Z,38965.5
2018-11-11T11:59:01.114Z,37527.1
2018-11-11T12:00:01.325Z,35830.4
2018-11-11T12:01:01.124Z,34039.1
2018-11-11T12:02:01.199Z,32563.4
2018-11-11T12:03:06.114Z,32063.2
2018-11-11T12:04:01.124Z,31631.9
2018-11-11T12:05:01.335Z,31376.8
2018-11-11T12:06:01.119Z,31300.7
2018-11-11T12:07:01.150Z,31175.8
2018-11-11T12:08:01.131Z,30508.2
2018-11-11T12:09:01.233Z,29820.5
2018-11-11T12:10:01.328Z,30408.9
2018-11-11T12:11:01.092Z,32069.2
2018-11-11T12:12:01.157Z,34205.5
2018-11-11T12:13:01.121Z,36548.8
2018-11-11T12:14:01.119Z,38844.1
2018-11-11T12:15:02.152Z,41250.0
2018-11-11T12:16:01.117Z,43839.0
2018-11-11T12:17:01.214Z,46199.7
2018-11-11T12:19:01.103Z,48180.5
2018-11-11T12:20:01.318Z,50590.2
2018-11-11T12:21:01.111Z,53148.1
2018-11-11T12:22:01.115Z,55508.6
2018-11-11T12:23:01.143Z,57595.4
2018-11-11T12:24:01.112Z,59977.9
2018-11-11T12:25:03.432Z,62317.5
2018-11-11T12:26:01.107Z,63855.3
2018-11-11T12:27:01.103Z,64549.1
2018-11-11T12:28:06.112Z,64793.9
2018-11-11T12:30:02.692Z,64793.9
2018-11-11T12:33:01.111Z,65161.5
2018-11-11T12:34:01.105Z,65503.4
2018-11-11T12:35:01.361Z,65534.9
2018-11-11T12:36:01.105Z,65535.0
2018-11-11T12:42:01.387Z,65102.1
2018-11-11T12:43:01.111Z,63885.5
2018-11-11T12:44:01.110Z,62119.5
2018-11-11T12:45:01.116Z,59815.8
2018-11-11T12:46:01.110Z,57208.0
2018-11-11T12:47:01.536Z,54331.3
2018-11-11T12:48:01.113Z,51535.3
2018-11-11T12:49:01.161Z,48652.3
2018-11-11T12:50:01.130Z,46747.7
2018-11-11T12:51:02.490Z,46234.3
2018-11-11T12:52:01.329Z,45604.4
2018-11-11T12:53:01.122Z,44334.7
2018-11-11T12:54:06.116Z,42945.3
2018-11-11T12:55:01.109Z,41315.2
2018-11-11T12:56:01.112Z,39343.5
2018-11-11T12:57:01.318Z,37850.9
2018-11-11T12:58:01.110Z,37324.8
2018-11-11T12:59:06.125Z,37667.2
2018-11-11T13:00:01.110Z,38912.9
2018-11-11T13:01:01.114Z,40584.1
2018-11-11T13:02:01.337Z,42187.3
2018-11-11T13:03:01.112Z,43925.3
2018-11-11T13:04:01.138Z,46355.2
2018-11-11T13:05:01.118Z,47866.4
2018-11-11T13:06:01.119Z,47776.7
2018-11-11T13:07:01.327Z,48068.7
2018-11-11T13:08:01.149Z,49233.8
2018-11-11T13:09:06.116Z,50614.1
2018-11-11T13:10:01.113Z,52244.1
2018-11-11T13:11:01.111Z,54215.8
2018-11-11T13:12:01.477Z,56141.3
2018-11-11T13:13:01.113Z,57808.3
2018-11-11T13:14:06.113Z,58792.5
2018-11-11T13:15:01.120Z,59120.9
2018-11-11T13:16:01.118Z,59297.3
2018-11-11T13:17:01.328Z,59754.6
2018-11-11T13:19:06.121Z,60802.3
2018-11-11T13:20:01.112Z,61255.4
2018-11-11T13:21:01.111Z,61588.7
2018-11-11T13:22:01.178Z,61823.3
2018-11-11T13:23:01.510Z,61497.3
2018-11-11T13:24:06.118Z,61037.6
2018-11-11T13:25:01.119Z,60767.3
2018-11-11T13:26:01.980Z,60567.5
2018-11-11T13:27:01.109Z,60155.8
2018-11-11T13:28:01.367Z,59498.7
2018-11-11T13:29:06.115Z,58744.1
2018-11-11T13:30:01.111Z,58409.3
2018-11-11T13:31:01.116Z,58235.1
2018-11-11T13:32:01.226Z,57722.3
2018-11-11T13:33:01.327Z,57215.9
2018-11-11T13:34:01.120Z,55950.1
2018-11-11T13:35:01.119Z,54428.6
2018-11-11T13:36:01.121Z,52745.5
2018-11-11T13:37:01.124Z,50880.5
2018-11-11T13:38:01.420Z,48895.6
2018-11-11T13:39:01.119Z,46529.4
2018-11-11T13:40:01.121Z,43868.9
2018-11-11T13:41:01.116Z,41217.7
2018-11-11T13:42:01.116Z,39139.8
2018-11-11T13:43:01.459Z,37998.1
2018-11-11T13:44:01.115Z,37402.9
2018-11-11T13:45:01.123Z,36657.1
2018-11-11T13:46:01.120Z,35990.1
2018-11-11T13:47:01.200Z,35976.4
2018-11-11T13:48:01.334Z,36224.5
2018-11-11T13:49:01.123Z,36169.1
2018-11-11T13:50:06.149Z,35714.1
2018-11-11T13:52:01.102Z,34641.7
2018-11-11T13:53:01.314Z,33800.2
2018-11-11T13:54:01.077Z,33392.6
2018-11-11T13:55:06.108Z,33411.9
2018-11-11T13:56:01.102Z,33621.2
2018-11-11T13:57:01.102Z,33805.2
2018-11-11T13:58:01.314Z,33483.5
2018-11-11T13:59:01.108Z,32873.7
2018-11-11T14:00:06.114Z,32044.5
2018-11-11T14:01:06.113Z,31295.1
2018-11-11T14:02:01.110Z,30560.4
2018-11-11T14:03:01.315Z,29708.3
2018-11-11T14:04:02.121Z,28834.2
2018-11-11T14:05:06.109Z,28119.2
2018-11-11T14:06:01.105Z,27699.8
2018-11-11T14:07:01.106Z,27814.8
2018-11-11T14:08:01.362Z,28145.7
2018-11-11T14:09:01.109Z,28639.8
2018-11-11T14:10:01.150Z,29194.4
2018-11-11T14:11:01.141Z,29753.7
2018-11-11T14:12:01.108Z,30449.0
2018-11-11T14:13:01.328Z,31589.1
2018-11-11T14:14:01.114Z,32617.5
2018-11-11T14:15:01.144Z,33469.1
2018-11-11T14:16:01.136Z,33964.1
2018-11-11T14:17:01.109Z,34132.5
2018-11-11T14:18:01.389Z,33957.1
2018-11-11T14:19:01.372Z,33455.3
2018-11-11T14:20:01.151Z,32901.7
2018-11-11T14:21:01.305Z,32505.3
2018-11-11T14:22:01.108Z,32295.3
2018-11-11T14:23:01.319Z,32191.3
2018-11-11T14:24:01.109Z,32050.4
2018-11-11T14:25:01.148Z,31794.9
2018-11-11T14:26:02.207Z,31277.7
2018-11-11T14:27:01.122Z,30475.6
2018-11-11T14:28:01.366Z,29256.9
2018-11-11T14:29:01.120Z,27612.4
2018-11-11T14:30:01.162Z,25920.7
2018-11-11T14:31:01.098Z,24590.7
2018-11-11T14:32:01.144Z,23638.1
2018-11-11T14:33:01.338Z,22830.9
2018-11-11T14:34:01.116Z,22094.7
2018-11-11T14:35:01.146Z,21398.2
2018-11-11T14:36:01.111Z,20726.5
2018-11-11T14:37:01.116Z,20023.1
2018-11-11T14:38:01.326Z,19169.7
2018-11-11T14:39:01.643Z,18213.5
2018-11-11T14:40:01.253Z,17178.4
2018-11-11T14:41:01.112Z,16171.3
2018-11-11T14:42:01.112Z,15185.4
2018-11-11T14:43:01.333Z,14375.7
2018-11-11T14:44:01.110Z,13727.5
2018-11-11T14:45:01.158Z,13138.0
2018-11-11T14:46:01.183Z,12503.2
2018-11-11T14:47:01.111Z,11785.0
2018-11-11T14:48:01.318Z,11060.5
2018-11-11T14:49:01.148Z,10372.3
2018-11-11T14:50:01.149Z,9748.3
2018-11-11T14:51:01.111Z,9258.9
2018-11-11T14:52:01.170Z,8945.7
2018-11-11T14:53:01.437Z,8732.6
2018-11-11T14:54:01.112Z,8457.2
2018-11-11T14:55:01.144Z,8148.9
2018-11-11T14:56:01.118Z,7871.9
2018-11-11T14:57:01.122Z,7642.5
2018-11-11T14:58:01.390Z,7333.7
2018-11-11T14:59:01.113Z,6977.5
2018-11-11T15:00:06.117Z,6608.7
2018-11-11T15:01:06.114Z,6269.4
2018-11-11T15:02:01.112Z,5964.7
2018-11-11T15:03:01.328Z,5663.5
2018-11-11T15:04:01.175Z,5376.4
2018-11-11T15:05:01.112Z,5124.1
2018-11-11T15:06:06.122Z,4891.7
2018-11-11T15:07:01.115Z,4622.1
2018-11-11T15:08:01.342Z,4329.8
2018-11-11T15:09:01.117Z,4053.3
2018-11-11T15:10:01.128Z,3787.1
2018-11-11T15:11:06.124Z,3518.3
2018-11-11T15:12:01.087Z,3251.5
2018-11-11T15:13:02.189Z,3003.3
2018-11-11T15:14:01.160Z,2775.0
2018-11-11T15:15:01.123Z,2559.9
2018-11-11T15:16:06.122Z,2365.3
2018-11-11T15:17:01.123Z,2220.2
2018-11-11T15:18:01.329Z,2108.8
2018-11-11T15:19:01.192Z,1990.9
2018-11-11T15:20:01.303Z,1865.1
2018-11-11T15:21:06.209Z,1750.7
2018-11-11T15:22:01.116Z,1655.8
2018-11-11T15:24:01.322Z,1586.9
2018-11-11T15:25:01.111Z,1517.3
2018-11-11T15:26:06.107Z,1452.3
2018-11-11T15:27:01.107Z,1396.9
2018-11-11T15:28:01.103Z,1345.9
2018-11-11T15:29:01.361Z,1289.1
2018-11-11T15:30:01.111Z,1229.3
2018-11-11T15:31:01.289Z,1176.9
2018-11-11T15:32:01.108Z,1127.2
2018-11-11T15:33:01.109Z,1060.5
2018-11-11T15:34:01.319Z,992.5
2018-11-11T15:35:01.111Z,943.1
2018-11-11T15:36:06.108Z,910.4
2018-11-11T15:37:01.111Z,876.9
2018-11-11T15:38:01.205Z,832.2
2018-11-11T15:39:36.194Z,767.7
2018-11-11T15:41:01.410Z,703.5
2018-11-11T15:42:01.115Z,643.2
2018-11-11T15:43:01.120Z,591.5
2018-11-11T15:44:01.110Z,548.4
2018-11-11T15:45:01.114Z,510.1
2018-11-11T15:46:01.324Z,473.9
2018-11-11T15:47:01.111Z,439.0
2018-11-11T15:48:01.108Z,404.3
2018-11-11T15:49:01.107Z,370.1
2018-11-11T15:50:01.187Z,336.7
2018-11-11T15:51:01.326Z,304.3
2018-11-11T15:52:01.127Z,273.2
2018-11-11T15:53:01.117Z,243.5
2018-11-11T15:54:01.113Z,216.0
2018-11-11T15:55:01.108Z,191.3
2018-11-11T15:56:01.321Z,170.7
2018-11-11T15:57:01.108Z,151.5
2018-11-11T15:58:01.116Z,133.7
2018-11-11T15:59:01.142Z,117.1
2018-11-11T16:00:01.111Z,101.7
2018-11-11T16:01:01.365Z,87.9
2018-11-11T16:02:01.112Z,75.9
2018-11-11T16:03:01.111Z,65.5
2018-11-11T16:04:01.125Z,56.3
2018-11-11T16:05:01.113Z,48.3
2018-11-11T16:06:01.356Z,41.6
2018-11-11T16:07:01.117Z,35.7
2018-11-11T16:08:01.116Z,30.5
2018-11-11T16:09:01.114Z,26.1
2018-11-11T16:10:01.119Z,22.5
2018-11-11T16:11:01.338Z,19.5
2018-11-11T16:12:01.114Z,16.9
2018-11-11T16:13:01.128Z,14.6
2018-11-11T16:14:01.208Z,12.5
2018-11-11T16:16:01.309Z,10.5
2018-11-11T16:17:01.100Z,8.9
2018-11-11T16:18:01.103Z,7.5
2018-11-11T16:19:01.099Z,6.3
2018-11-11T16:20:01.149Z,5.3
2018-11-11T16:21:02.252Z,4.4
2018-11-11T16:22:01.105Z,3.7
2018-11-11T16:23:01.112Z,3.1
2018-11-11T16:24:01.105Z,2.6
2018-11-11T16:25:01.106Z,2.1
2018-11-11T16:26:01.320Z,1.7
2018-11-11T16:27:01.112Z,1.4
2018-11-11T16:28:01.145Z,1.1
2018-11-11T16:29:01.111Z,0.9
2018-11-11T16:30:01.109Z,0.7
2018-11-11T16:31:01.349Z,0.6
2018-11-11T16:32:01.107Z,0.5
2018-11-11T16:33:01.111Z,0.4
2018-11-11T16:34:01.119Z,0.3
2018-11-11T16:36:01.386Z,0.2
2018-11-11T16:37:01.119Z,0.1
